Time;durP1;ratioP1;P1;durP2;ratioP2;P2;SDS_P1;SDS_P2;PMS_P1;PMS_P2;Temp;Humidity;BMP_temperature;BMP_pressure;BME280_temperature;BME280_humidity;BME280_pressure;Samples;Min_cycle;Max_cycle;Signal;HPM_P1;HPM_P2
2023/09/10 00:00:53;;;;;;;8.00;3.10;;;;;;;16.87;59.50;101747.48;107358;1254;99076;-63
2023/09/10 00:03:41;;;;;;;8.20;3.20;;;;;;;16.87;59.73;101745.23;107413;1254;114877;-64
2023/09/10 00:06:10;;;;;;;6.90;3.20;;;;;;;16.89;59.76;101749.23;107362;1254;108940;-64
2023/09/10 00:08:38;;;;;;;8.80;3.10;;;;;;;16.91;59.94;101748.32;107388;1255;107770;-64
2023/09/10 00:11:07;;;;;;;8.80;3.20;;;;;;;16.92;59.71;101749.20;107374;1254;99253;-63
2023/09/10 00:13:36;;;;;;;16.00;3.10;;;;;;;16.93;59.71;101752.52;107367;1259;99197;-63
2023/09/10 00:16:04;;;;;;;13.50;2.90;;;;;;;16.96;59.70;101758.55;107370;1254;112620;-64
2023/09/10 00:18:32;;;;;;;9.90;3.20;;;;;;;16.95;59.84;101752.73;107391;1259;109649;-64
2023/09/10 00:21:01;;;;;;;10.80;3.00;;;;;;;16.92;59.76;101754.95;107352;1258;107546;-65
2023/09/10 00:23:29;;;;;;;13.00;3.60;;;;;;;16.90;59.82;101757.65;107364;1254;99071;-65
2023/09/10 00:25:57;;;;;;;7.10;3.20;;;;;;;16.88;59.85;101757.49;107384;1257;99185;-62
2023/09/10 00:28:26;;;;;;;13.40;4.00;;;;;;;16.86;59.93;101756.97;107405;1254;113398;-65
2023/09/10 00:30:55;;;;;;;7.80;2.90;;;;;;;16.84;59.97;101757.15;107245;1260;108571;-65
2023/09/10 00:33:23;;;;;;;6.80;3.50;;;;;;;16.82;59.99;101752.27;107300;1256;107143;-64
2023/09/10 00:35:52;;;;;;;9.70;3.40;;;;;;;16.80;60.03;101755.23;107394;1254;99195;-64
2023/09/10 00:38:20;;;;;;;8.80;2.80;;;;;;;16.75;59.98;101756.03;107293;1255;99103;-64
2023/09/10 00:40:48;;;;;;;11.50;2.90;;;;;;;16.69;59.86;101754.84;107391;1255;112568;-65
2023/09/10 00:43:17;;;;;;;8.40;3.70;;;;;;;16.65;59.50;101750.70;107271;1254;109684;-63
2023/09/10 00:45:46;;;;;;;10.80;3.50;;;;;;;16.62;59.43;101755.69;107381;1254;108280;-65
2023/09/10 00:48:15;;;;;;;7.40;3.00;;;;;;;16.60;59.41;101755.96;107427;1254;99170;-64
2023/09/10 00:50:43;;;;;;;10.90;3.20;;;;;;;16.55;59.18;101755.70;107399;1254;99249;-63
2023/09/10 00:53:12;;;;;;;12.30;3.40;;;;;;;16.51;59.03;101754.67;107426;1254;112587;-64
2023/09/10 00:55:40;;;;;;;6.40;3.10;;;;;;;16.45;59.08;101752.86;107271;1254;110100;-64
2023/09/10 00:58:09;;;;;;;8.70;2.90;;;;;;;16.41;59.04;101749.95;107359;1254;107456;-65
2023/09/10 01:00:37;;;;;;;11.50;3.00;;;;;;;16.39;58.89;101747.61;107280;1254;99102;-65
2023/09/10 01:03:06;;;;;;;6.70;2.60;;;;;;;16.37;58.82;101750.33;107412;1255;99195;-65
2023/09/10 01:05:36;;;;;;;10.50;3.00;;;;;;;16.35;58.59;101753.80;107422;1254;113458;-65
2023/09/10 01:08:05;;;;;;;7.60;2.70;;;;;;;16.30;58.49;101752.17;107344;1255;109322;-65
2023/09/10 01:10:43;;;;;;;13.90;3.90;;;;;;;16.26;58.56;101754.38;107293;1254;107434;-64
2023/09/10 01:13:32;;;;;;;6.50;2.80;;;;;;;16.22;58.70;101754.03;107388;1258;99215;-65
2023/09/10 01:16:15;;;;;;;9.90;3.00;;;;;;;16.18;58.88;101755.11;107392;1254;99176;-65
2023/09/10 01:18:48;;;;;;;13.30;4.40;;;;;;;16.14;58.84;101752.77;107369;1255;112866;-64
2023/09/10 01:21:36;;;;;;;6.00;2.60;;;;;;;16.09;58.98;101752.14;107414;1254;107653;-64
2023/09/10 01:24:19;;;;;;;7.60;2.80;;;;;;;16.02;59.23;101753.05;107391;1258;107534;-63
2023/09/10 01:26:55;;;;;;;5.90;3.10;;;;;;;15.94;59.22;101758.30;107208;1260;99176;-66
2023/09/10 01:29:24;;;;;;;7.90;2.50;;;;;;;15.85;59.11;101759.86;107403;1256;99044;-64
2023/09/10 01:32:00;;;;;;;12.10;2.70;;;;;;;15.78;59.01;101762.71;107405;1260;113081;-64
2023/09/10 01:34:34;;;;;;;7.80;2.30;;;;;;;15.71;58.89;101765.33;107400;1254;108733;-63
2023/09/10 01:37:26;;;;;;;11.10;2.80;;;;;;;15.67;59.01;101768.41;107418;1259;108179;-64
2023/09/10 01:39:57;;;;;;;16.60;3.30;;;;;;;15.62;58.93;101767.40;107371;1257;99188;-65
2023/09/10 01:42:25;;;;;;;9.80;2.60;;;;;;;15.61;58.91;101767.52;107416;1260;99200;-63
2023/09/10 01:44:55;;;;;;;8.40;2.80;;;;;;;15.61;58.72;101767.02;107442;1254;113142;-64
2023/09/10 01:47:24;;;;;;;9.00;2.90;;;;;;;15.61;58.66;101766.42;107153;1254;109321;-64
2023/09/10 01:49:53;;;;;;;11.40;2.90;;;;;;;15.60;58.76;101767.94;107318;1259;107821;-65
2023/09/10 01:52:21;;;;;;;5.30;2.00;;;;;;;15.56;58.81;101767.65;107373;1257;99263;-64
2023/09/10 01:54:49;;;;;;;11.70;2.70;;;;;;;15.53;58.76;101762.48;107366;1258;99691;-64
2023/09/10 01:57:17;;;;;;;9.00;2.70;;;;;;;15.51;58.73;101763.76;107364;1257;113236;-64
2023/09/10 01:59:46;;;;;;;9.50;2.70;;;;;;;15.51;58.70;101768.67;107264;1257;108826;-64
2023/09/10 02:02:15;;;;;;;11.00;3.00;;;;;;;15.52;58.66;101768.23;107277;1260;108476;-64
2023/09/10 02:04:43;;;;;;;7.80;2.60;;;;;;;15.54;58.53;101766.44;107343;1260;99202;-64
2023/09/10 02:07:12;;;;;;;6.50;2.70;;;;;;;15.56;58.56;101767.98;107391;1260;100595;-64
2023/09/10 02:09:42;;;;;;;5.90;2.90;;;;;;;15.58;58.39;101767.66;107280;1255;113180;-64
2023/09/10 02:12:10;;;;;;;9.60;2.70;;;;;;;15.61;58.27;101764.62;107276;1255;109865;-64
2023/09/10 02:14:38;;;;;;;9.30;2.70;;;;;;;15.63;58.16;101764.42;107373;1254;107158;-64
2023/09/10 02:17:08;;;;;;;8.60;2.70;;;;;;;15.65;57.99;101760.95;107280;1260;99179;-64
2023/09/10 02:19:36;;;;;;;10.30;2.40;;;;;;;15.67;57.86;101765.56;107294;1260;99140;-64
2023/09/10 02:22:05;;;;;;;5.60;2.30;;;;;;;15.69;57.41;101769.50;107366;1255;112368;-64
2023/09/10 02:24:33;;;;;;;6.80;2.70;;;;;;;15.69;57.09;101768.44;107404;1255;109615;-64
2023/09/10 02:27:01;;;;;;;10.20;3.00;;;;;;;15.71;57.06;101766.08;107335;1260;107801;-65
2023/09/10 02:29:29;;;;;;;11.40;2.60;;;;;;;15.73;57.00;101766.10;107394;1255;99264;-65
2023/09/10 02:31:57;;;;;;;10.90;2.50;;;;;;;15.73;56.74;101766.91;107382;1260;99234;-65
2023/09/10 02:34:26;;;;;;;7.40;2.30;;;;;;;15.73;56.47;101768.03;107382;1257;113345;-65
2023/09/10 02:36:54;;;;;;;7.30;2.10;;;;;;;15.72;56.37;101770.86;107302;1258;109208;-63
2023/09/10 02:39:22;;;;;;;10.90;2.80;;;;;;;15.71;56.23;101774.34;107330;1259;107504;-64
2023/09/10 02:41:51;;;;;;;7.30;2.20;;;;;;;15.72;56.19;101779.89;107370;1258;99182;-64
2023/09/10 02:44:19;;;;;;;19.60;2.90;;;;;;;15.72;56.01;101781.69;107414;1260;99659;-64
2023/09/10 02:46:48;;;;;;;12.50;2.50;;;;;;;15.72;55.93;101780.26;107368;1254;113156;-64
2023/09/10 02:49:17;;;;;;;6.80;2.40;;;;;;;15.72;55.92;101778.09;107382;1254;109745;-64
2023/09/10 02:51:45;;;;;;;17.70;2.50;;;;;;;15.73;55.74;101777.66;107390;1259;108322;-64
2023/09/10 02:54:15;;;;;;;6.00;2.50;;;;;;;15.74;55.64;101772.67;107354;1254;99172;-65
2023/09/10 02:56:43;;;;;;;5.60;2.50;;;;;;;15.75;55.51;101773.45;107423;1254;99169;-64
2023/09/10 02:59:23;;;;;;;8.30;2.00;;;;;;;15.75;55.37;101774.00;107402;1255;113161;-64
2023/09/10 03:01:52;;;;;;;12.90;2.10;;;;;;;15.73;55.00;101775.48;107388;1255;108495;-64
2023/09/10 03:04:21;;;;;;;8.00;2.00;;;;;;;15.72;54.75;101774.86;107265;1254;108892;-65
2023/09/10 03:06:50;;;;;;;9.90;2.20;;;;;;;15.71;54.67;101771.02;107372;1254;99266;-65
2023/09/10 03:09:19;;;;;;;10.50;2.30;;;;;;;15.69;54.44;101775.67;107443;1255;99108;-64
2023/09/10 03:11:47;;;;;;;12.90;2.70;;;;;;;15.67;54.42;101771.88;107406;1255;112828;-64
2023/09/10 03:14:16;;;;;;;28.80;2.80;;;;;;;15.64;54.16;101771.18;107417;1254;109626;-64
2023/09/10 03:16:44;;;;;;;19.80;2.50;;;;;;;15.60;54.05;101767.03;107347;1257;108788;-64
2023/09/10 03:19:14;;;;;;;11.20;3.10;;;;;;;15.59;54.01;101765.56;107413;1254;99686;-64
2023/09/10 03:21:42;;;;;;;8.30;2.30;;;;;;;15.58;53.82;101765.86;107279;1255;99148;-64
2023/09/10 03:24:11;;;;;;;14.70;2.60;;;;;;;15.58;53.84;101770.34;107269;1254;112617;-64
2023/09/10 03:26:39;;;;;;;11.50;2.50;;;;;;;15.58;53.78;101771.23;107412;1254;110023;-63
2023/09/10 03:29:08;;;;;;;8.50;2.60;;;;;;;15.58;53.74;101773.98;107272;1255;108353;-63
2023/09/10 03:31:36;;;;;;;10.80;2.30;;;;;;;15.57;53.65;101773.34;107378;1258;99179;-65
2023/09/10 03:34:04;;;;;;;22.80;3.30;;;;;;;15.56;53.67;101772.14;107285;1259;99516;-63
2023/09/10 03:36:33;;;;;;;11.00;2.40;;;;;;;15.56;53.51;101769.09;107251;1260;113508;-63
2023/09/10 03:39:01;;;;;;;11.50;2.30;;;;;;;15.56;53.28;101772.20;107234;1258;109967;-63
2023/09/10 03:41:30;;;;;;;4.50;2.10;;;;;;;15.55;53.27;101776.40;107396;1254;107330;-64
2023/09/10 03:43:59;;;;;;;10.20;2.70;;;;;;;15.55;53.21;101777.32;107443;1254;99292;-64
2023/09/10 03:46:28;;;;;;;10.10;1.90;;;;;;;15.55;53.26;101779.83;107435;1254;99079;-63
2023/09/10 03:48:56;;;;;;;6.80;2.50;;;;;;;15.56;53.20;101783.08;107430;1257;113104;-64
2023/09/10 03:51:27;;;;;;;6.30;2.00;;;;;;;15.54;53.23;101781.92;107454;1255;109949;-63
2023/09/10 03:53:55;;;;;;;12.00;2.40;;;;;;;15.54;53.20;101780.54;107276;1258;108504;-65
2023/09/10 03:56:25;;;;;;;14.60;2.30;;;;;;;15.54;53.23;101778.20;107260;1254;99160;-65
2023/09/10 03:58:53;;;;;;;19.60;2.20;;;;;;;15.53;53.19;101777.89;107300;1254;99267;-65
2023/09/10 04:01:22;;;;;;;5.70;2.00;;;;;;;15.54;53.16;101774.35;107405;1254;113610;-62
2023/09/10 04:03:50;;;;;;;14.20;2.40;;;;;;;15.55;53.06;101773.91;107452;1254;109807;-64
2023/09/10 04:06:18;;;;;;;29.60;2.40;;;;;;;15.55;53.00;101777.15;107294;1255;107752;-64
2023/09/10 04:08:47;;;;;;;22.40;3.20;;;;;;;15.54;52.93;101780.13;107270;1254;99179;-63
2023/09/10 04:11:16;;;;;;;17.10;3.30;;;;;;;15.52;52.80;101782.13;107269;1254;99069;-63
2023/09/10 04:13:44;;;;;;;11.70;2.90;;;;;;;15.52;52.92;101783.77;107306;1254;113225;-64
2023/09/10 04:16:13;;;;;;;11.70;3.00;;;;;;;15.53;52.82;101786.04;107281;1254;108433;-63
2023/09/10 04:18:42;;;;;;;18.70;3.50;;;;;;;15.55;52.88;101786.05;107408;1254;107552;-64
2023/09/10 04:21:14;;;;;;;14.30;2.70;;;;;;;15.58;52.95;101780.33;107385;1257;99191;-63
2023/09/10 04:23:43;;;;;;;12.20;3.10;;;;;;;15.60;52.96;101781.93;107386;1254;99690;-63
2023/09/10 04:26:12;;;;;;;12.60;2.40;;;;;;;15.64;53.15;101778.44;107385;1254;113141;-64
2023/09/10 04:28:42;;;;;;;11.20;2.60;;;;;;;15.70;53.13;101775.95;107399;1254;109845;-64
2023/09/10 04:31:16;;;;;;;17.70;2.40;;;;;;;15.75;52.95;101780.02;107393;1255;106721;-64
2023/09/10 04:33:45;;;;;;;21.70;2.80;;;;;;;15.80;52.75;101775.52;107407;1254;99103;-64
2023/09/10 04:36:14;;;;;;;15.70;2.60;;;;;;;15.84;52.73;101774.63;107413;1254;99073;-64
2023/09/10 04:38:42;;;;;;;13.00;3.00;;;;;;;15.88;52.60;101774.13;107290;1254;113599;-64
2023/09/10 04:41:11;;;;;;;13.20;2.50;;;;;;;15.92;52.46;101777.50;107293;1254;110657;-63
2023/09/10 04:43:39;;;;;;;12.10;2.60;;;;;;;15.96;52.60;101780.20;107358;1254;107384;-64
2023/09/10 04:46:08;;;;;;;4.80;2.40;;;;;;;16.01;52.49;101782.62;107391;1254;99287;-64
2023/09/10 04:48:36;;;;;;;9.30;2.40;;;;;;;16.06;52.55;101782.46;107295;1254;99845;-64
2023/09/10 04:51:06;;;;;;;13.00;2.90;;;;;;;16.14;52.46;101784.09;107444;1254;113711;-64
2023/09/10 04:53:35;;;;;;;8.30;2.30;;;;;;;16.22;52.25;101781.00;107243;1254;108754;-64
2023/09/10 04:56:04;;;;;;;10.80;2.30;;;;;;;16.27;52.07;101782.81;107347;1254;107596;-64
2023/09/10 04:58:32;;;;;;;9.60;2.40;;;;;;;16.33;52.04;101780.84;107355;1254;99281;-64
2023/09/10 05:01:01;;;;;;;10.40;2.60;;;;;;;16.38;51.91;101787.17;107381;1254;99701;-64
2023/09/10 05:03:29;;;;;;;12.10;2.40;;;;;;;16.43;51.77;101782.91;107233;1258;113444;-64
2023/09/10 05:06:00;;;;;;;11.90;2.30;;;;;;;16.48;51.71;101782.71;107190;1258;109558;-64
2023/09/10 05:08:29;;;;;;;11.90;2.10;;;;;;;16.52;51.59;101779.70;107367;1254;107508;-64
2023/09/10 05:10:57;;;;;;;11.80;2.40;;;;;;;16.55;51.36;101780.11;107341;1257;99288;-64
2023/09/10 05:13:26;;;;;;;8.10;2.90;;;;;;;16.56;51.33;101780.36;107429;1254;99871;-65
2023/09/10 05:15:54;;;;;;;21.70;2.40;;;;;;;16.57;51.08;101781.34;107412;1254;112267;-64
2023/09/10 05:18:25;;;;;;;11.20;2.80;;;;;;;16.58;51.05;101782.36;107410;1254;109799;-64
2023/09/10 05:20:54;;;;;;;6.90;2.50;;;;;;;16.58;51.09;101785.59;107362;1257;109337;-63
2023/09/10 05:23:26;;;;;;;18.10;2.50;;;;;;;16.61;51.10;101786.30;107376;1254;99201;-64
2023/09/10 05:25:55;;;;;;;5.90;2.70;;;;;;;16.62;51.18;101785.23;107413;1254;99194;-64
2023/09/10 05:28:24;;;;;;;6.60;2.20;;;;;;;16.64;51.15;101783.98;107410;1254;112596;-65
2023/09/10 05:30:52;;;;;;;8.20;2.00;;;;;;;16.65;50.70;101785.02;107413;1254;110067;-64
2023/09/10 05:33:21;;;;;;;6.00;2.40;;;;;;;16.64;50.53;101783.67;107242;1260;108248;-64
2023/09/10 05:35:57;;;;;;;7.80;2.30;;;;;;;16.65;50.15;101791.10;107341;1255;99185;-65
2023/09/10 05:38:27;;;;;;;9.40;2.30;;;;;;;16.67;50.03;101792.33;107410;1254;99253;-63
2023/09/10 05:41:01;;;;;;;11.10;2.20;;;;;;;16.69;50.15;101791.77;107369;1257;112816;-64
2023/09/10 05:43:31;;;;;;;11.10;4.90;;;;;;;16.73;50.00;101791.08;107154;1257;109754;-64
2023/09/10 05:45:59;;;;;;;15.70;2.50;;;;;;;16.74;49.48;101794.71;107312;1260;107295;-63
2023/09/10 05:48:28;;;;;;;11.70;2.00;;;;;;;16.78;49.31;101795.45;107324;1254;99199;-64
2023/09/10 05:50:56;;;;;;;6.90;2.00;;;;;;;16.82;49.12;101801.24;107407;1254;99188;-64
2023/09/10 05:53:27;;;;;;;10.80;1.70;;;;;;;16.85;49.00;101801.45;107400;1254;112157;-64
2023/09/10 05:55:56;;;;;;;6.50;1.80;;;;;;;16.89;48.90;101800.89;107400;1254;110003;-64
2023/09/10 05:58:25;;;;;;;11.90;2.00;;;;;;;16.92;48.71;101799.90;107406;1254;107571;-64
2023/09/10 06:00:54;;;;;;;8.90;1.90;;;;;;;16.94;48.48;101806.78;107295;1254;99288;-64
2023/09/10 06:03:22;;;;;;;7.50;2.70;;;;;;;16.97;48.48;101802.70;107382;1254;99203;-63
2023/09/10 06:05:50;;;;;;;11.60;1.70;;;;;;;17.02;48.25;101808.55;107397;1254;113284;-64
2023/09/10 06:08:19;;;;;;;11.60;2.00;;;;;;;17.06;48.37;101813.77;107432;1254;109730;-65
2023/09/10 06:10:48;;;;;;;7.20;1.80;;;;;;;17.09;48.41;101811.42;107408;1254;108250;-64
2023/09/10 06:13:16;;;;;;;7.80;1.50;;;;;;;17.14;48.38;101817.33;107255;1257;99175;-64
2023/09/10 06:15:45;;;;;;;11.60;1.50;;;;;;;17.18;48.17;101815.23;107366;1257;99208;-64
2023/09/10 06:18:13;;;;;;;11.40;1.90;;;;;;;17.24;47.73;101815.82;107347;1254;112148;-64
2023/09/10 06:20:41;;;;;;;15.20;2.40;;;;;;;17.27;47.58;101818.16;107418;1254;108814;-64
2023/09/10 06:23:10;;;;;;;11.80;1.80;;;;;;;17.32;47.50;101817.64;107368;1254;108560;-64
2023/09/10 06:25:38;;;;;;;7.90;2.00;;;;;;;17.41;47.41;101822.08;107368;1254;99215;-64
2023/09/10 06:28:07;;;;;;;10.80;2.00;;;;;;;17.47;47.29;101821.24;107395;1254;99226;-63
2023/09/10 06:30:36;;;;;;;7.00;1.50;;;;;;;17.51;47.34;101820.65;107318;1254;112120;-64
2023/09/10 06:33:04;;;;;;;10.30;2.00;;;;;;;17.56;47.21;101823.05;107481;1254;109870;-64
2023/09/10 06:35:34;;;;;;;11.20;1.60;;;;;;;17.62;47.31;101824.94;107283;1254;108810;-64
2023/09/10 06:38:03;;;;;;;4.40;1.90;;;;;;;17.70;47.17;101828.73;107263;1258;99206;-63
2023/09/10 06:40:36;;;;;;;7.70;1.70;;;;;;;17.75;47.11;101828.17;107476;1253;99172;-64
2023/09/10 06:43:06;;;;;;;4.10;2.40;;;;;;;17.82;47.07;101830.34;107258;1257;114188;-64
2023/09/10 06:45:41;;;;;;;8.50;2.10;;;;;;;17.89;46.97;101833.19;107271;1254;110150;-64
2023/09/10 06:48:09;;;;;;;13.80;2.40;;;;;;;17.96;46.66;101834.80;107438;1254;109240;-64
2023/09/10 06:50:37;;;;;;;14.80;2.30;;;;;;;18.02;46.74;101828.75;107411;1254;99080;-64
2023/09/10 06:53:06;;;;;;;7.80;1.50;;;;;;;18.09;46.68;101832.84;107474;1254;99070;-64
2023/09/10 06:55:34;;;;;;;7.90;1.80;;;;;;;18.17;46.53;101832.97;107446;1254;112113;-65
2023/09/10 06:58:02;;;;;;;10.20;2.40;;;;;;;18.25;46.44;101832.50;107447;1254;109125;-64
2023/09/10 07:00:30;;;;;;;16.40;2.60;;;;;;;18.33;46.57;101833.36;107426;1257;109242;-64
2023/09/10 07:03:01;;;;;;;8.60;2.00;;;;;;;18.40;46.49;101834.70;107365;1254;99288;-65
2023/09/10 07:05:30;;;;;;;6.70;1.50;;;;;;;18.49;46.17;101834.20;107415;1253;99156;-65
2023/09/10 07:07:59;;;;;;;8.10;1.90;;;;;;;18.55;45.95;101833.35;107460;1254;112048;-65
2023/09/10 07:10:27;;;;;;;8.80;1.70;;;;;;;18.61;45.79;101834.02;107442;1254;109677;-65
2023/09/10 07:12:56;;;;;;;10.00;1.90;;;;;;;18.67;45.93;101823.58;107401;1253;108195;-65
2023/09/10 07:15:24;;;;;;;11.80;2.70;;;;;;;18.75;45.95;101823.30;107401;1254;99204;-64
2023/09/10 07:17:52;;;;;;;9.80;2.30;;;;;;;18.84;45.96;101821.27;107418;1254;99090;-64
2023/09/10 07:20:20;;;;;;;10.90;2.40;;;;;;;18.92;45.70;101821.45;107455;1254;112731;-64
2023/09/10 07:22:48;;;;;;;10.90;1.50;;;;;;;19.01;45.82;101821.75;107418;1254;108895;-65
2023/09/10 07:25:17;;;;;;;15.80;2.50;;;;;;;19.10;45.75;101823.68;107282;1254;107085;-64
2023/09/10 07:27:45;;;;;;;11.50;2.00;;;;;;;19.20;45.46;101821.21;107412;1254;99194;-65
2023/09/10 07:30:13;;;;;;;4.80;1.50;;;;;;;19.29;45.44;101822.46;107414;1257;99080;-64
2023/09/10 07:32:41;;;;;;;11.50;2.00;;;;;;;19.40;45.34;101825.06;107398;1254;113657;-63
2023/09/10 07:35:10;;;;;;;5.60;2.00;;;;;;;19.50;45.21;101820.70;107419;1254;108872;-63
2023/09/10 07:37:39;;;;;;;9.60;2.50;;;;;;;19.58;45.10;101819.45;107254;1254;108417;-64
2023/09/10 07:40:09;;;;;;;11.70;1.90;;;;;;;19.68;44.91;101818.15;107423;1254;99219;-64
2023/09/10 07:42:37;;;;;;;6.90;2.10;;;;;;;19.81;44.94;101816.02;107431;1254;99694;-64
2023/09/10 07:45:13;;;;;;;10.60;2.60;;;;;;;19.92;44.64;101817.09;107416;1254;112657;-64
2023/09/10 07:47:42;;;;;;;10.60;2.80;;;;;;;20.04;44.38;101816.33;107268;1253;109083;-64
2023/09/10 07:50:11;;;;;;;10.30;2.00;;;;;;;20.17;44.08;101811.20;107431;1257;108526;-64
2023/09/10 07:52:39;;;;;;;12.30;1.90;;;;;;;20.30;43.97;101808.13;107398;1257;99173;-64
2023/09/10 07:55:08;;;;;;;15.20;2.60;;;;;;;20.44;43.95;101808.79;107178;1254;99720;-64
2023/09/10 07:57:36;;;;;;;5.90;2.00;;;;;;;20.56;43.92;101808.49;107448;1254;112276;-65
2023/09/10 08:00:08;;;;;;;17.80;2.20;;;;;;;20.68;43.75;101808.36;107419;1254;109127;-65
2023/09/10 08:02:39;;;;;;;27.00;6.00;;;;;;;20.80;42.85;101805.50;107423;1254;108348;-64
2023/09/10 08:05:08;;;;;;;15.40;2.60;;;;;;;20.92;43.24;101805.98;107391;1254;99201;-64
2023/09/10 08:07:37;;;;;;;12.80;2.40;;;;;;;21.04;43.15;101804.36;107438;1254;100406;-64
2023/09/10 08:10:06;;;;;;;19.70;2.10;;;;;;;21.15;42.98;101799.52;107433;1254;114342;-65
2023/09/10 08:12:34;;;;;;;9.60;2.40;;;;;;;21.25;42.77;101796.46;107460;1254;108887;-65
2023/09/10 08:15:04;;;;;;;7.50;2.20;;;;;;;21.39;42.98;101795.75;107413;1254;107998;-65
2023/09/10 08:17:35;;;;;;;6.30;1.90;;;;;;;21.54;42.73;101792.45;107412;1254;99179;-65
2023/09/10 08:20:06;;;;;;;12.40;1.90;;;;;;;21.74;42.56;101792.13;107454;1254;99415;-65
2023/09/10 08:22:35;;;;;;;8.60;1.80;;;;;;;21.91;42.42;101795.01;107436;1254;112016;-65
2023/09/10 08:25:07;;;;;;;9.20;2.10;;;;;;;22.05;41.98;101790.45;107434;1254;110802;-65
2023/09/10 08:27:38;;;;;;;12.40;2.20;;;;;;;22.18;41.47;101787.91;107425;1254;108596;-65
2023/09/10 08:30:09;;;;;;;13.10;5.30;;;;;;;22.35;41.18;101787.30;107382;1257;99868;-65
2023/09/10 08:32:37;;;;;;;8.20;1.90;;;;;;;22.51;41.22;101783.19;107464;1257;99383;-65
2023/09/10 08:35:06;;;;;;;6.70;2.50;;;;;;;22.69;41.03;101780.09;107361;1258;112556;-65
2023/09/10 08:37:35;;;;;;;5.80;2.30;;;;;;;22.87;40.39;101781.72;107393;1254;108647;-65
2023/09/10 08:40:04;;;;;;;9.10;2.80;;;;;;;23.03;40.03;101779.79;107425;1254;108640;-64
2023/09/10 08:42:58;;;;;;;8.80;2.10;;;;;;;23.19;40.06;101778.95;107443;1254;99191;-65
2023/09/10 08:45:27;;;;;;;10.60;2.60;;;;;;;23.41;40.09;101776.23;107445;1254;99791;-64
2023/09/10 08:48:00;;;;;;;7.30;2.40;;;;;;;23.62;39.74;101774.80;107397;1254;112446;-65
2023/09/10 08:50:29;;;;;;;;;;;;;;;23.84;39.66;101776.50;107447;1254;109436;-65
2023/09/10 08:52:59;;;;;;;13.80;2.80;;;;;;;24.07;38.79;101778.19;107423;1254;108203;-65
2023/09/10 08:55:29;;;;;;;10.90;2.40;;;;;;;24.26;38.37;101774.19;107432;1254;99131;-65
2023/09/10 08:57:58;;;;;;;7.90;2.00;;;;;;;24.47;37.59;101771.39;107412;1254;99723;-65
2023/09/10 09:00:28;;;;;;;11.80;2.30;;;;;;;24.67;37.60;101770.55;107409;1254;112730;-65
2023/09/10 09:02:57;;;;;;;13.20;2.80;;;;;;;24.89;36.90;101767.52;107398;1254;109402;-65
2023/09/10 09:05:29;;;;;;;16.00;2.30;;;;;;;25.06;35.93;101766.16;107361;1257;107380;-65
2023/09/10 09:08:10;;;;;;;7.90;2.40;;;;;;;25.23;36.14;101761.98;107408;1254;99875;-65
2023/09/10 09:10:39;;;;;;;8.90;2.10;;;;;;;25.46;35.81;101758.19;107426;1253;99179;-65
2023/09/10 09:13:09;;;;;;;7.90;2.90;;;;;;;25.77;35.57;101757.07;107385;1254;113095;-65
2023/09/10 09:15:39;;;;;;;11.80;2.40;;;;;;;26.09;35.09;101753.56;107429;1257;110007;-65
2023/09/10 09:18:09;;;;;;;13.40;2.40;;;;;;;26.42;34.92;101751.23;107400;1254;108584;-65
2023/09/10 09:20:39;;;;;;;19.10;2.80;;;;;;;26.85;34.24;101752.45;107361;1254;99209;-65
2023/09/10 09:23:27;;;;;;;8.10;2.00;;;;;;;27.35;33.49;101750.30;107367;1254;99174;-65
2023/09/10 09:25:57;;;;;;;14.70;2.70;;;;;;;28.03;32.62;101745.55;107380;1254;112219;-65
2023/09/10 09:28:27;;;;;;;12.40;2.00;;;;;;;28.76;31.48;101743.29;107435;1254;110079;-65
2023/09/10 09:30:55;;;;;;;11.60;2.40;;;;;;;29.39;31.10;101738.69;107398;1254;107848;-65
2023/09/10 09:33:24;;;;;;;9.00;2.20;;;;;;;30.05;30.13;101734.87;107390;1254;99156;-64
2023/09/10 09:35:53;;;;;;;10.10;2.40;;;;;;;30.72;29.68;101732.68;107377;1257;99173;-65
2023/09/10 09:38:21;;;;;;;11.00;2.20;;;;;;;31.39;29.05;101730.20;107399;1254;112900;-64
2023/09/10 09:40:49;;;;;;;5.90;2.10;;;;;;;31.97;27.83;101724.11;107383;1254;109438;-64
2023/09/10 09:43:20;;;;;;;9.40;2.00;;;;;;;32.36;26.76;101722.73;107397;1254;108300;-64
2023/09/10 09:45:51;;;;;;;16.20;2.40;;;;;;;32.80;26.68;101727.86;107381;1254;99223;-65
2023/09/10 09:48:19;;;;;;;2.70;1.80;;;;;;;33.22;25.52;101716.87;107417;1254;99210;-64
2023/09/10 09:50:48;;;;;;;12.70;2.40;;;;;;;33.56;25.91;101720.20;107374;1254;113032;-65
2023/09/10 09:53:16;;;;;;;6.70;2.00;;;;;;;34.05;25.13;101719.77;107419;1254;109428;-64
2023/09/10 09:55:45;;;;;;;5.70;1.90;;;;;;;34.56;24.29;101710.62;107380;1257;107450;-65
2023/09/10 09:58:17;;;;;;;8.20;1.80;;;;;;;35.02;24.10;101713.56;107045;1254;439766;-65
2023/09/10 10:00:46;;;;;;;4.90;1.90;;;;;;;35.48;22.91;101708.12;107452;1254;99081;-65
2023/09/10 10:03:17;;;;;;;9.90;1.90;;;;;;;35.83;22.58;101712.28;107321;1254;112328;-65
2023/09/10 10:05:50;;;;;;;6.90;1.70;;;;;;;36.04;21.92;101711.40;107380;1257;108869;-65
2023/09/10 10:08:24;;;;;;;5.90;1.80;;;;;;;36.19;21.94;101704.11;107377;1254;108449;-65
2023/09/10 10:10:53;;;;;;;10.30;2.10;;;;;;;36.44;21.53;101704.81;107458;1254;99188;-65
2023/09/10 10:13:24;;;;;;;4.10;2.20;;;;;;;36.60;21.28;101703.39;107458;1254;99074;-65
2023/09/10 10:15:55;;;;;;;10.10;2.20;;;;;;;36.72;21.49;101698.02;107536;1254;113701;-65
2023/09/10 10:18:26;;;;;;;10.90;2.00;;;;;;;36.93;20.68;101695.30;107544;1254;108131;-65
2023/09/10 10:21:03;;;;;;;5.50;1.50;;;;;;;37.07;19.94;101698.45;107468;1254;108077;-66
2023/09/10 10:23:31;;;;;;;11.90;1.90;;;;;;;37.30;19.97;101701.03;107439;1254;99192;-65
2023/09/10 10:26:05;;;;;;;8.90;1.80;;;;;;;37.45;19.68;101694.17;107506;1254;99058;-66
2023/09/10 10:28:35;;;;;;;7.60;2.10;;;;;;;37.63;19.35;101692.45;107501;1254;111938;-66
2023/09/10 10:31:10;;;;;;;4.50;1.60;;;;;;;37.47;19.47;101692.68;107514;1254;108616;-65
2023/09/10 10:33:50;;;;;;;7.30;1.80;;;;;;;37.77;19.43;101692.46;107433;1254;107500;-65
2023/09/10 10:36:57;;;;;;;7.30;2.20;;;;;;;38.11;19.20;101685.70;107459;1254;99178;-67
2023/09/10 10:40:00;;;;;;;6.50;2.00;;;;;;;38.47;19.02;101686.52;107177;1257;99099;-66
2023/09/10 10:43:05;;;;;;;5.90;1.80;;;;;;;38.60;18.46;101679.07;107488;1254;114396;-64
2023/09/10 10:45:34;;;;;;;5.40;1.70;;;;;;;38.57;18.18;101676.07;107448;1253;109825;-65
2023/09/10 10:48:26;;;;;;;2.80;1.50;;;;;;;38.66;17.93;101673.90;107463;1254;107345;-65
2023/09/10 10:50:57;;;;;;;6.60;2.00;;;;;;;38.48;18.10;101670.83;107484;1254;99229;-65
2023/09/10 10:53:26;;;;;;;7.00;1.90;;;;;;;38.52;18.09;101667.44;107498;1254;99259;-65
2023/09/10 10:55:59;;;;;;;9.30;2.20;;;;;;;38.74;18.37;101669.80;107423;1254;112254;-65
2023/09/10 10:58:32;;;;;;;6.90;1.90;;;;;;;39.14;17.90;101665.84;107414;1254;109692;-65
2023/09/10 11:01:01;;;;;;;6.80;1.90;;;;;;;39.40;17.67;101660.65;107439;1254;107669;-65
2023/09/10 11:03:32;;;;;;;4.10;1.50;;;;;;;39.64;17.85;101655.02;107416;1254;99175;-65
2023/09/10 11:06:05;;;;;;;12.70;2.10;;;;;;;39.92;17.43;101652.91;107428;1254;99826;-64
2023/09/10 11:08:36;;;;;;;6.80;2.40;;;;;;;40.10;16.83;101648.36;107475;1257;113528;-64
2023/09/10 11:11:09;;;;;;;6.30;1.70;;;;;;;39.56;16.80;101653.44;107427;1254;110450;-65
2023/09/10 11:13:59;;;;;;;4.70;1.20;;;;;;;38.91;17.32;101656.42;107425;1254;107290;-65
2023/09/10 11:16:31;;;;;;;9.90;1.80;;;;;;;38.95;17.17;101650.27;107408;1253;99256;-66
2023/09/10 11:19:01;;;;;;;9.50;2.30;;;;;;;38.82;17.32;101647.61;107455;1257;99070;-66
2023/09/10 11:21:54;;;;;;;5.80;1.50;;;;;;;38.93;17.30;101648.05;107424;1254;113915;-65
2023/09/10 11:24:22;;;;;;;12.70;1.70;;;;;;;39.08;17.19;101641.77;107397;1254;110078;-66